Time;durP1;ratioP1;P1;durP2;ratioP2;P2;SDS_P1;SDS_P2;PMS_P1;PMS_P2;Temp;Humidity;BMP_temperature;BMP_pressure;BME280_temperature;BME280_humidity;BME280_pressure;Samples;Min_cycle;Max_cycle;Signal;HPM_P1;HPM_P2
2022/03/08 00:00:13;;;;;;;26.98;7.90;;;0.60;99.90;;;;;;5113080;28;20050;-73
2022/03/08 00:02:39;;;;;;;27.60;7.72;;;0.50;99.90;;;;;;5130725;28;20047;-73
2022/03/08 00:05:05;;;;;;;26.77;8.43;;;0.50;99.90;;;;;;5113027;28;20035;-73
2022/03/08 00:07:31;;;;;;;26.90;7.60;;;0.50;99.90;;;;;;5131395;27;20444;-73
2022/03/08 00:09:57;;;;;;;26.05;7.95;;;0.50;99.90;;;;;;5103592;28;20044;-73
2022/03/08 00:12:23;;;;;;;30.75;9.02;;;0.50;99.90;;;;;;5091243;28;20151;-73
2022/03/08 00:14:48;;;;;;;30.83;8.48;;;0.50;99.90;;;;;;5092388;28;20040;-73
2022/03/08 00:17:14;;;;;;;28.08;8.27;;;0.50;99.90;;;;;;5117533;28;20122;-73
2022/03/08 00:19:40;;;;;;;28.35;8.70;;;0.50;99.90;;;;;;5130238;28;20143;-73
2022/03/08 00:22:06;;;;;;;30.88;8.93;;;0.50;99.90;;;;;;5112167;28;20043;-73
2022/03/08 00:24:32;;;;;;;28.52;8.77;;;0.50;99.90;;;;;;5130349;28;20043;-73
2022/03/08 00:26:57;;;;;;;28.98;8.95;;;0.40;99.90;;;;;;5110604;28;20130;-73
2022/03/08 00:29:23;;;;;;;28.85;9.27;;;0.40;99.90;;;;;;5130493;28;20122;-74
2022/03/08 00:31:49;;;;;;;33.80;9.05;;;0.40;99.90;;;;;;5099143;28;20439;-74
2022/03/08 00:34:16;;;;;;;30.27;9.18;;;0.40;99.90;;;;;;5076272;28;20048;-73
2022/03/08 00:36:42;;;;;;;34.28;9.23;;;0.30;99.90;;;;;;5092459;28;20157;-73
2022/03/08 00:39:07;;;;;;;32.90;9.60;;;0.30;99.90;;;;;;5110978;28;20733;-73
2022/03/08 00:41:33;;;;;;;31.20;9.43;;;0.30;99.90;;;;;;5094880;28;20068;-73
2022/03/08 00:43:59;;;;;;;30.38;8.98;;;0.20;99.90;;;;;;5096158;28;20101;-73
2022/03/08 00:46:25;;;;;;;34.38;9.02;;;0.20;99.90;;;;;;5107623;27;20079;-73
2022/03/08 00:48:51;;;;;;;36.35;10.23;;;0.20;99.90;;;;;;5116426;27;20479;-74
2022/03/08 00:51:16;;;;;;;35.53;9.20;;;0.10;99.90;;;;;;5133562;27;20043;-73
2022/03/08 00:53:43;;;;;;;30.52;9.50;;;0.10;99.90;;;;;;5132057;27;20410;-73
2022/03/08 00:56:09;;;;;;;36.47;10.07;;;0.00;99.90;;;;;;5131369;27;20051;-73
2022/03/08 00:58:36;;;;;;;33.05;9.52;;;0.00;99.90;;;;;;5133009;27;20039;-73
2022/03/08 01:01:03;;;;;;;33.38;8.82;;;-0.10;99.90;;;;;;5115609;27;20058;-72
2022/03/08 01:03:29;;;;;;;39.08;11.15;;;0.00;99.90;;;;;;5116753;27;20087;-74
2022/03/08 01:05:55;;;;;;;32.58;10.13;;;-0.10;99.90;;;;;;5098471;27;20233;-73
2022/03/08 01:08:21;;;;;;;34.95;9.65;;;-0.20;99.90;;;;;;5099849;27;20221;-73
2022/03/08 01:10:47;;;;;;;37.03;9.82;;;-0.20;99.90;;;;;;5114535;27;20386;-72
2022/03/08 01:13:13;;;;;;;33.72;9.88;;;-0.20;99.90;;;;;;5098843;27;20188;-73
2022/03/08 01:15:39;;;;;;;35.25;10.23;;;-0.30;99.90;;;;;;5115733;27;20397;-72
2022/03/08 01:18:04;;;;;;;40.17;10.20;;;-0.20;99.90;;;;;;5115651;27;20063;-73
2022/03/08 01:20:30;;;;;;;33.78;9.80;;;-0.20;99.90;;;;;;5134413;27;20469;-73
2022/03/08 01:22:56;;;;;;;37.38;10.13;;;-0.20;99.90;;;;;;5133064;27;20046;-73
2022/03/08 01:25:23;;;;;;;35.25;10.77;;;-0.10;99.90;;;;;;5114103;27;20043;-74
2022/03/08 01:27:50;;;;;;;36.10;10.18;;;-0.10;99.90;;;;;;5134711;27;20112;-73
2022/03/08 01:30:19;;;;;;;38.35;9.95;;;-0.10;99.90;;;;;;5114801;27;20166;-74
2022/03/08 01:32:45;;;;;;;37.88;10.85;;;-0.10;99.90;;;;;;5116087;27;20043;-72
2022/03/08 01:35:12;;;;;;;38.83;10.60;;;-0.10;99.90;;;;;;5115024;27;20039;-74
2022/03/08 01:37:38;;;;;;;37.35;10.95;;;-0.10;99.90;;;;;;5134164;27;20104;-73
2022/03/08 01:40:06;;;;;;;32.47;10.88;;;-0.20;99.90;;;;;;5133387;27;20051;-73
2022/03/08 01:42:32;;;;;;;38.30;11.52;;;-0.20;99.90;;;;;;5132278;27;20066;-73
2022/03/08 01:44:59;;;;;;;38.67;12.23;;;-0.20;99.90;;;;;;5133403;27;20043;-73
2022/03/08 01:47:25;;;;;;;35.47;10.48;;;-0.20;99.90;;;;;;5114624;27;20057;-75
2022/03/08 01:49:53;;;;;;;34.42;10.98;;;-0.30;99.90;;;;;;5134144;27;20422;-72
2022/03/08 01:52:22;;;;;;;33.67;10.32;;;-0.20;99.90;;;;;;5114041;27;20043;-73
2022/03/08 01:54:48;;;;;;;31.67;10.43;;;-0.20;99.90;;;;;;5130695;27;20047;-74
2022/03/08 01:57:14;;;;;;;40.93;12.20;;;-0.20;99.90;;;;;;5113108;27;20182;-72
2022/03/08 01:59:41;;;;;;;35.70;10.80;;;-0.30;99.90;;;;;;5098547;27;20722;-72
2022/03/08 02:02:08;;;;;;;39.10;11.30;;;-0.30;99.90;;;;;;5114248;27;20379;-73
2022/03/08 02:04:33;;;;;;;40.47;11.83;;;-0.30;99.90;;;;;;5115618;27;20057;-74
2022/03/08 02:07:00;;;;;;;41.22;11.32;;;-0.30;99.90;;;;;;5094224;27;20066;-72
2022/03/08 02:09:26;;;;;;;37.65;10.85;;;-0.30;99.90;;;;;;5126199;27;20336;-73
2022/03/08 02:11:52;;;;;;;40.85;12.57;;;-0.30;99.90;;;;;;5075470;28;20043;-73
2022/03/08 02:14:18;;;;;;;42.47;12.13;;;-0.20;99.90;;;;;;5077268;28;20840;-73
2022/03/08 02:16:45;;;;;;;40.15;13.27;;;-0.10;99.90;;;;;;5103534;27;20395;-73
2022/03/08 02:19:15;;;;;;;43.03;12.07;;;-0.20;99.90;;;;;;5097186;27;20059;-73
2022/03/08 02:21:41;;;;;;;35.22;11.35;;;-0.20;99.90;;;;;;5132407;27;20122;-73
2022/03/08 02:24:07;;;;;;;39.72;11.88;;;-0.20;99.90;;;;;;5132714;27;20047;-73
2022/03/08 02:26:33;;;;;;;39.75;11.90;;;-0.30;99.90;;;;;;5116334;27;20051;-73
2022/03/08 02:29:00;;;;;;;44.22;13.18;;;-0.20;99.90;;;;;;5114686;27;20055;-74
2022/03/08 02:31:26;;;;;;;41.45;12.38;;;-0.30;99.90;;;;;;5130180;27;20070;-73
2022/03/08 02:33:52;;;;;;;41.40;11.27;;;-0.30;99.90;;;;;;5114330;27;20391;-72
2022/03/08 02:36:18;;;;;;;38.30;12.20;;;-0.30;99.90;;;;;;5113390;27;20146;-72
2022/03/08 02:38:44;;;;;;;41.55;11.95;;;-0.30;99.90;;;;;;5114664;27;20394;-74
2022/03/08 02:41:10;;;;;;;46.00;13.18;;;-0.30;99.90;;;;;;5111792;27;20057;-74
2022/03/08 02:43:36;;;;;;;43.88;12.75;;;-0.30;99.90;;;;;;5132880;27;20099;-72
2022/03/08 02:46:02;;;;;;;38.45;12.40;;;-0.40;99.90;;;;;;5116522;27;20050;-74
2022/03/08 02:48:29;;;;;;;45.47;12.38;;;-0.40;99.90;;;;;;5114694;27;20055;-72
2022/03/08 02:50:55;;;;;;;41.70;12.20;;;-0.40;99.90;;;;;;5132194;27;20184;-72
2022/03/08 02:53:21;;;;;;;42.30;14.20;;;-0.40;99.90;;;;;;5113946;27;20050;-72
2022/03/08 02:55:47;;;;;;;44.50;13.07;;;-0.40;99.90;;;;;;5112596;27;20039;-73
2022/03/08 02:58:16;;;;;;;48.38;13.48;;;-0.50;99.90;;;;;;5112875;27;20340;-74
2022/03/08 03:00:42;;;;;;;49.38;12.90;;;-0.50;99.90;;;;;;5112472;27;20039;-73
2022/03/08 03:03:09;;;;;;;50.33;14.02;;;-0.50;99.90;;;;;;5114610;27;20348;-73
2022/03/08 03:05:36;;;;;;;42.20;14.93;;;-0.50;99.90;;;;;;5123078;27;20043;-73
2022/03/08 03:08:05;;;;;;;38.30;12.18;;;-0.60;99.90;;;;;;5082664;28;20062;-73
2022/03/08 03:10:31;;;;;;;43.22;13.25;;;-0.60;99.90;;;;;;5109775;28;20058;-73
2022/03/08 03:12:58;;;;;;;46.53;13.55;;;-0.60;99.90;;;;;;5093418;28;20079;-74
2022/03/08 03:15:26;;;;;;;42.95;13.45;;;-0.60;99.90;;;;;;5075342;28;20039;-74
2022/03/08 03:17:52;;;;;;;45.53;13.82;;;-0.60;99.90;;;;;;5093428;28;20051;-72
2022/03/08 03:20:20;;;;;;;46.65;14.45;;;-0.70;99.90;;;;;;5124932;27;20233;-74
2022/03/08 03:22:47;;;;;;;42.67;13.45;;;-0.70;99.90;;;;;;5132045;27;20126;-72
2022/03/08 03:25:14;;;;;;;46.22;13.73;;;-0.70;99.90;;;;;;5112002;27;20580;-74
2022/03/08 03:27:41;;;;;;;40.58;13.13;;;-0.70;99.90;;;;;;5112600;27;20047;-74
2022/03/08 03:30:10;;;;;;;48.75;14.35;;;-0.70;99.90;;;;;;5113224;27;20513;-73
2022/03/08 03:32:36;;;;;;;44.20;14.10;;;-0.80;99.90;;;;;;5113284;27;20123;-73
2022/03/08 03:35:03;;;;;;;49.42;15.10;;;-0.80;99.90;;;;;;5096045;27;20051;-73
2022/03/08 03:37:28;;;;;;;50.65;14.18;;;-0.80;99.90;;;;;;5129883;27;20059;-73
2022/03/08 03:39:54;;;;;;;49.35;14.07;;;-0.90;99.90;;;;;;5132042;27;20039;-73
2022/03/08 03:42:20;;;;;;;45.38;14.25;;;-0.90;99.90;;;;;;5121808;27;20055;-72
2022/03/08 03:44:46;;;;;;;46.65;14.55;;;-0.90;99.90;;;;;;5096827;27;20137;-74
2022/03/08 03:47:12;;;;;;;48.53;14.80;;;-0.90;99.90;;;;;;5095670;27;20093;-74
2022/03/08 03:49:37;;;;;;;50.92;16.27;;;-0.90;99.90;;;;;;5096648;28;20089;-74
2022/03/08 03:52:04;;;;;;;46.80;14.43;;;-0.90;99.90;;;;;;5112860;28;20047;-72
2022/03/08 03:54:30;;;;;;;57.53;16.33;;;-0.90;99.90;;;;;;5131152;28;20104;-72
2022/03/08 03:56:56;;;;;;;57.47;16.05;;;-1.00;99.90;;;;;;5074305;28;20048;-73
2022/03/08 03:59:22;;;;;;;53.65;15.00;;;-1.00;99.90;;;;;;5110330;28;20090;-73
2022/03/08 04:01:47;;;;;;;51.88;14.98;;;-1.00;99.90;;;;;;5099171;28;20104;-73
2022/03/08 04:04:13;;;;;;;50.58;14.60;;;-1.00;99.90;;;;;;5096021;28;20047;-74
2022/03/08 04:06:40;;;;;;;56.00;16.90;;;-1.10;99.90;;;;;;5095914;28;20047;-73
2022/03/08 04:09:07;;;;;;;50.90;16.17;;;-1.10;99.90;;;;;;5094341;27;20043;-72
2022/03/08 04:11:33;;;;;;;52.13;16.33;;;-1.10;99.90;;;;;;5090660;28;20036;-75
2022/03/08 04:13:59;;;;;;;53.78;14.85;;;-1.10;99.90;;;;;;5111660;28;20047;-73
2022/03/08 04:16:25;;;;;;;55.55;15.93;;;-1.10;99.90;;;;;;5086657;27;20039;-73
2022/03/08 04:18:51;;;;;;;52.65;16.58;;;-1.10;99.90;;;;;;5135792;27;20119;-73
2022/03/08 04:21:16;;;;;;;49.92;15.82;;;-1.10;99.90;;;;;;5115792;27;20121;-72
2022/03/08 04:23:42;;;;;;;57.78;16.65;;;-1.20;99.90;;;;;;5134589;27;20046;-72
2022/03/08 04:26:08;;;;;;;60.03;16.58;;;-1.20;99.90;;;;;;5081609;27;20188;-73
2022/03/08 04:28:34;;;;;;;55.15;17.20;;;-1.30;99.90;;;;;;5135018;27;20043;-73
2022/03/08 04:31:00;;;;;;;59.63;17.45;;;-1.30;99.90;;;;;;5116187;27;20058;-73
2022/03/08 04:33:26;;;;;;;61.95;18.25;;;-1.20;99.90;;;;;;5133436;27;20046;-73
2022/03/08 04:35:51;;;;;;;56.00;15.88;;;-1.30;99.90;;;;;;5134671;27;20043;-73
2022/03/08 04:38:17;;;;;;;54.88;16.70;;;-1.30;99.90;;;;;;5099457;27;20105;-73
2022/03/08 04:40:43;;;;;;;62.55;17.63;;;-1.30;99.90;;;;;;5097840;27;20401;-73
2022/03/08 04:43:09;;;;;;;61.00;17.05;;;-1.30;99.90;;;;;;5099940;27;20049;-73
2022/03/08 04:45:34;;;;;;;52.80;17.17;;;-1.30;99.90;;;;;;5134008;27;20050;-74
2022/03/08 04:48:00;;;;;;;59.25;17.30;;;-1.30;99.90;;;;;;5135138;27;20118;-74
2022/03/08 04:50:26;;;;;;;61.13;18.05;;;-0.90;99.90;;;;;;5103639;27;20041;-72
2022/03/08 04:52:52;;;;;;;57.97;17.58;;;-1.40;99.90;;;;;;5133612;27;20422;-73
2022/03/08 04:55:19;;;;;;;63.30;18.10;;;-1.40;99.90;;;;;;5131480;27;20050;-73
2022/03/08 04:57:46;;;;;;;58.13;17.10;;;-1.40;99.90;;;;;;5133522;27;20444;-74
2022/03/08 05:00:13;;;;;;;57.90;16.43;;;-1.50;99.90;;;;;;5116185;27;20048;-74
2022/03/08 05:02:43;;;;;;;61.10;17.65;;;-1.40;99.90;;;;;;5079260;28;20559;-74
2022/03/08 05:05:11;;;;;;;56.33;16.55;;;-1.40;99.90;;;;;;5122578;27;20039;-73
2022/03/08 05:07:37;;;;;;;53.97;17.33;;;-1.40;99.90;;;;;;5115383;27;20058;-73
2022/03/08 05:10:04;;;;;;;52.17;17.13;;;-1.40;99.90;;;;;;5116490;27;20363;-73
2022/03/08 05:12:30;;;;;;;62.15;19.45;;;-1.40;99.90;;;;;;5096840;27;20479;-74
2022/03/08 05:14:57;;;;;;;55.97;16.83;;;-1.40;99.90;;;;;;5134737;27;20083;-73
2022/03/08 05:17:23;;;;;;;52.77;17.20;;;-1.30;99.90;;;;;;5132140;27;20471;-72
2022/03/08 05:19:48;;;;;;;60.20;17.20;;;-1.30;99.90;;;;;;5134015;27;20379;-73
2022/03/08 05:22:14;;;;;;;57.92;18.27;;;-1.30;99.90;;;;;;5115111;27;20050;-73
2022/03/08 05:24:40;;;;;;;55.13;17.15;;;-1.30;99.90;;;;;;5134090;27;20069;-72
2022/03/08 05:27:07;;;;;;;61.47;18.27;;;-1.40;99.90;;;;;;5130705;27;20043;-72
2022/03/08 05:29:33;;;;;;;58.35;18.17;;;-1.30;99.90;;;;;;5132600;27;20051;-72
2022/03/08 05:31:59;;;;;;;59.10;17.60;;;-1.30;99.90;;;;;;5120255;27;20170;-73
2022/03/08 05:34:25;;;;;;;58.63;18.27;;;-1.30;99.90;;;;;;5061478;28;20193;-72
2022/03/08 05:36:51;;;;;;;63.95;19.13;;;-1.40;99.90;;;;;;5115547;27;20047;-73
2022/03/08 05:39:17;;;;;;;57.70;17.35;;;-1.40;99.90;;;;;;5099979;27;20450;-75
2022/03/08 05:41:43;;;;;;;62.13;17.85;;;-1.40;99.90;;;;;;5130949;27;20043;-73
2022/03/08 05:44:09;;;;;;;62.85;18.88;;;-1.40;99.90;;;;;;5132610;27;20107;-73
2022/03/08 05:46:35;;;;;;;67.40;19.50;;;-1.30;99.90;;;;;;5132057;27;20044;-74
2022/03/08 05:49:01;;;;;;;58.92;18.20;;;-1.50;99.90;;;;;;5115876;27;20108;-72
2022/03/08 05:51:27;;;;;;;58.30;19.00;;;-1.40;99.90;;;;;;5131620;27;20050;-73
2022/03/08 05:53:52;;;;;;;55.83;17.58;;;-1.40;99.90;;;;;;5098298;27;20130;-73
2022/03/08 05:56:18;;;;;;;60.95;19.77;;;-1.40;99.90;;;;;;5130243;27;20501;-74
2022/03/08 05:58:44;;;;;;;61.03;19.27;;;-1.40;99.90;;;;;;5098652;27;20047;-74
2022/03/08 06:01:10;;;;;;;62.35;22.33;;;-1.50;99.90;;;;;;5114739;27;20051;-73
2022/03/08 06:03:35;;;;;;;86.35;36.20;;;-1.50;99.90;;;;;;5131533;27;20054;-75
2022/03/08 06:06:01;;;;;;;86.65;30.83;;;-1.50;99.90;;;;;;5114939;27;20062;-74
2022/03/08 06:08:27;;;;;;;115.63;48.88;;;-1.30;99.90;;;;;;5097031;27;20313;-73
2022/03/08 06:10:53;;;;;;;105.95;43.03;;;-1.50;99.90;;;;;;5113233;27;20086;-73
2022/03/08 06:13:18;;;;;;;77.38;27.23;;;-1.50;99.90;;;;;;5097765;27;20411;-78
2022/03/08 06:15:44;;;;;;;66.32;25.05;;;-1.50;99.90;;;;;;5101168;27;20477;-75
2022/03/08 06:18:10;;;;;;;75.10;26.90;;;-1.50;99.90;;;;;;5114883;27;20491;-74
2022/03/08 06:20:36;;;;;;;61.55;21.27;;;-1.30;99.90;;;;;;5114261;27;20059;-74
2022/03/08 06:23:01;;;;;;;55.45;19.73;;;-1.40;99.90;;;;;;5115170;27;20043;-73
2022/03/08 06:25:27;;;;;;;59.13;19.90;;;-1.40;99.90;;;;;;5130649;27;20053;-75
2022/03/08 06:27:53;;;;;;;64.13;20.42;;;-1.30;99.90;;;;;;5133461;27;20050;-75
2022/03/08 06:30:19;;;;;;;65.22;20.30;;;-1.30;99.90;;;;;;5114753;27;20050;-76
2022/03/08 06:32:44;;;;;;;52.38;18.70;;;-1.30;99.90;;;;;;5114542;27;20156;-74
2022/03/08 06:35:11;;;;;;;62.80;20.27;;;-1.20;99.90;;;;;;5114588;27;20617;-75
2022/03/08 06:37:37;;;;;;;57.92;19.70;;;-1.20;99.90;;;;;;5096757;27;20047;-73
2022/03/08 06:40:03;;;;;;;56.20;18.45;;;-1.10;99.90;;;;;;5095541;28;20040;-75
2022/03/08 06:42:29;;;;;;;60.00;19.88;;;-1.00;99.90;;;;;;5109194;28;20071;-73
2022/03/08 06:44:55;;;;;;;54.20;20.33;;;-1.00;99.90;;;;;;5112572;28;20044;-75
2022/03/08 06:47:21;;;;;;;60.47;19.33;;;-0.90;99.90;;;;;;5093772;28;20051;-74
2022/03/08 06:49:47;;;;;;;66.90;19.70;;;-0.80;99.90;;;;;;5111381;28;20171;-73
2022/03/08 06:52:13;;;;;;;57.38;18.17;;;-0.70;99.90;;;;;;5093836;28;20051;-74
2022/03/08 06:54:40;;;;;;;56.70;19.92;;;-0.70;99.90;;;;;;5093841;28;20044;-73
2022/03/08 06:57:06;;;;;;;57.55;18.88;;;-0.60;99.90;;;;;;5075775;28;20372;-73
2022/03/08 06:59:31;;;;;;;53.92;18.52;;;-0.50;99.90;;;;;;5102220;28;20039;-74
2022/03/08 07:01:57;;;;;;;58.40;18.83;;;-0.50;99.90;;;;;;5112086;28;20047;-74
2022/03/08 07:04:24;;;;;;;60.55;19.83;;;-0.40;99.90;;;;;;5112097;28;20067;-75
2022/03/08 07:06:50;;;;;;;48.45;16.52;;;-0.30;99.90;;;;;;5093766;28;20055;-73
2022/03/08 07:09:16;;;;;;;49.03;17.00;;;-0.20;99.90;;;;;;5094410;28;20070;-75
2022/03/08 07:11:42;;;;;;;53.03;18.17;;;-0.20;99.90;;;;;;5075199;28;20138;-73
2022/03/08 07:14:08;;;;;;;52.17;17.17;;;-0.10;99.90;;;;;;5094540;28;20123;-75
2022/03/08 07:16:34;;;;;;;62.38;19.38;;;0.00;99.90;;;;;;5110592;28;20050;-74
2022/03/08 07:19:01;;;;;;;;;;;0.10;99.90;;;;;;5112740;28;20055;-74
2022/03/08 07:21:26;;;;;;;50.50;16.05;;;0.20;99.90;;;;;;5076529;28;19942;-75
2022/03/08 07:23:52;;;;;;;37.40;11.70;;;0.20;99.90;;;;;;5077720;28;20047;-73
2022/03/08 07:26:18;;;;;;;47.45;16.65;;;0.30;99.90;;;;;;5092424;28;20047;-74
2022/03/08 07:28:44;;;;;;;51.35;17.38;;;0.50;99.90;;;;;;5111086;28;20055;-74
2022/03/08 07:31:12;;;;;;;53.70;17.33;;;0.80;99.90;;;;;;5107828;28;20134;-74
2022/03/08 07:33:38;;;;;;;46.03;15.30;;;0.70;99.90;;;;;;5076931;28;20223;-74
2022/03/08 07:36:04;;;;;;;41.60;13.75;;;0.90;99.90;;;;;;5093228;28;20047;-73
2022/03/08 07:38:30;;;;;;;51.03;17.42;;;1.00;99.90;;;;;;5111461;28;20051;-72
2022/03/08 07:40:56;;;;;;;50.70;17.48;;;1.00;99.90;;;;;;5109961;28;20395;-72
2022/03/08 07:43:21;;;;;;;48.05;17.95;;;1.00;99.90;;;;;;5093725;28;20055;-73
2022/03/08 07:45:47;;;;;;;53.22;16.73;;;1.10;99.90;;;;;;5111047;28;20122;-72
2022/03/08 07:48:13;;;;;;;50.83;16.48;;;1.20;99.90;;;;;;5093352;28;20039;-73
2022/03/08 07:50:39;;;;;;;48.30;15.85;;;1.30;99.90;;;;;;5092136;28;20066;-73
2022/03/08 07:53:06;;;;;;;44.35;15.95;;;1.30;99.90;;;;;;5111557;28;20454;-73
2022/03/08 07:55:32;;;;;;;41.65;14.65;;;1.40;99.90;;;;;;5108785;28;20944;-72
2022/03/08 07:57:59;;;;;;;46.47;16.13;;;1.50;99.90;;;;;;5111703;28;20096;-73
2022/03/08 08:00:25;;;;;;;43.83;15.07;;;1.60;99.90;;;;;;5075973;28;20444;-73
2022/03/08 08:02:52;;;;;;;47.77;13.20;;;1.80;99.90;;;;;;5076607;28;20399;-73
2022/03/08 08:05:19;;;;;;;46.72;17.33;;;1.90;99.90;;;;;;5111297;28;20093;-73
2022/03/08 08:07:45;;;;;;;45.13;16.63;;;2.00;99.90;;;;;;5111231;28;20237;-73
2022/03/08 08:10:11;;;;;;;43.67;15.48;;;2.00;99.90;;;;;;5086753;28;20482;-73
2022/03/08 08:12:37;;;;;;;50.67;16.70;;;2.20;99.90;;;;;;5111798;28;20157;-73
2022/03/08 08:15:05;;;;;;;92.83;30.00;;;2.30;99.90;;;;;;5113444;28;20104;-73
2022/03/08 08:17:30;;;;;;;72.80;25.60;;;2.40;99.90;;;;;;5095739;28;21025;-73
2022/03/08 08:19:56;;;;;;;45.17;16.13;;;2.60;99.90;;;;;;5092895;28;20087;-72
2022/03/08 08:22:22;;;;;;;40.10;14.25;;;2.80;99.90;;;;;;5109618;28;20047;-72
2022/03/08 08:24:48;;;;;;;41.13;13.90;;;2.90;99.90;;;;;;5109702;28;20123;-73
2022/03/08 08:27:14;;;;;;;33.97;12.35;;;3.00;99.90;;;;;;5109365;28;20046;-72
2022/03/08 08:29:40;;;;;;;40.70;13.93;;;3.20;99.90;;;;;;5110754;28;20134;-72
2022/03/08 08:32:06;;;;;;;40.45;15.95;;;3.30;99.90;;;;;;5110445;28;20047;-72
2022/03/08 08:34:32;;;;;;;35.83;12.23;;;3.40;99.90;;;;;;5109242;28;20071;-73
2022/03/08 08:36:58;;;;;;;41.03;14.35;;;3.60;99.90;;;;;;5109656;28;20484;-73
2022/03/08 08:39:24;;;;;;;32.13;12.15;;;3.60;99.90;;;;;;5109875;28;20087;-73
2022/03/08 08:41:50;;;;;;;30.55;10.35;;;3.70;99.90;;;;;;5090731;28;20086;-74
2022/03/08 08:44:17;;;;;;;32.50;11.02;;;4.00;99.90;;;;;;5109590;28;20068;-73
2022/03/08 08:46:42;;;;;;;34.40;10.95;;;4.30;99.90;;;;;;5108929;28;20047;-74
2022/03/08 08:49:08;;;;;;;35.22;11.50;;;4.10;99.90;;;;;;5110010;28;20228;-74
2022/03/08 08:51:34;;;;;;;38.58;13.00;;;4.20;99.90;;;;;;5092045;28;20059;-74
2022/03/08 08:54:00;;;;;;;29.92;9.95;;;4.80;99.90;;;;;;5092937;28;20044;-74
2022/03/08 08:56:26;;;;;;;30.77;12.10;;;4.40;99.90;;;;;;5107759;28;20047;-73
2022/03/08 08:58:52;;;;;;;29.10;11.68;;;4.30;99.90;;;;;;5102914;28;20040;-74
2022/03/08 09:01:18;;;;;;;32.05;9.50;;;4.60;99.90;;;;;;5092825;28;20405;-74
2022/03/08 09:03:44;;;;;;;33.17;12.63;;;4.60;99.90;;;;;;5094039;28;20438;-75
2022/03/08 09:06:09;;;;;;;34.25;12.68;;;4.80;99.90;;;;;;5093822;28;20145;-74
2022/03/08 09:08:35;;;;;;;27.20;8.57;;;4.50;99.90;;;;;;5092638;28;20180;-74
2022/03/08 09:11:01;;;;;;;35.22;11.65;;;4.50;99.90;;;;;;5074541;28;20056;-75
2022/03/08 09:13:27;;;;;;;32.30;10.95;;;4.90;99.90;;;;;;5092790;28;20097;-75
2022/03/08 09:15:53;;;;;;;29.55;12.43;;;5.30;99.90;;;;;;5092964;28;20124;-73
2022/03/08 09:18:18;;;;;;;22.75;7.70;;;5.20;99.90;;;;;;5093824;28;20484;-75
2022/03/08 09:20:44;;;;;;;32.80;12.30;;;5.90;99.90;;;;;;5113576;28;20142;-74
2022/03/08 09:23:22;;;;;;;33.72;12.20;;;4.90;99.90;;;;;;5079592;28;20134;-74
2022/03/08 09:25:51;;;;;;;23.90;8.95;;;5.50;99.90;;;;;;5093810;28;20044;-74
2022/03/08 09:28:17;;;;;;;32.75;12.25;;;5.30;99.90;;;;;;5079126;28;20095;-74
2022/03/08 09:30:44;;;;;;;24.27;9.20;;;5.40;99.90;;;;;;5115917;27;20431;-75
2022/03/08 09:33:10;;;;;;;;;;;5.50;99.90;;;;;;5134854;27;20083;-73
2022/03/08 09:35:37;;;;;;;28.65;10.27;;;5.50;99.90;;;;;;5133809;27;19973;-74
2022/03/08 09:38:04;;;;;;;32.22;10.48;;;5.50;99.90;;;;;;5134842;27;20051;-76
2022/03/08 09:40:30;;;;;;;19.60;7.65;;;5.60;99.90;;;;;;5132699;27;20315;-74
2022/03/08 09:42:56;;;;;;;26.55;10.63;;;5.60;99.90;;;;;;5115916;27;20250;-74
2022/03/08 09:45:22;;;;;;;34.33;13.20;;;5.80;99.90;;;;;;5115402;27;20043;-73
2022/03/08 09:47:49;;;;;;;29.15;11.55;;;5.80;99.90;;;;;;5081783;27;20047;-73
2022/03/08 09:50:16;;;;;;;31.75;9.32;;;5.80;99.90;;;;;;5115917;27;20147;-75
2022/03/08 09:52:42;;;;;;;22.33;9.30;;;5.90;99.90;;;;;;5133724;27;20042;-73
2022/03/08 09:55:15;;;;;;;28.53;11.43;;;6.00;99.90;;;;;;5134310;27;20046;-73
2022/03/08 09:57:41;;;;;;;23.65;8.45;;;6.10;99.90;;;;;;5114455;27;20459;-74
2022/03/08 10:00:09;;;;;;;30.13;11.40;;;6.30;99.30;;;;;;5134283;27;20149;-74
2022/03/08 10:02:52;;;;;;;24.63;9.10;;;6.30;99.90;;;;;;5115852;27;20100;-74
2022/03/08 10:05:29;;;;;;;22.55;8.60;;;6.40;99.80;;;;;;5098381;27;20122;-74
2022/03/08 10:08:08;;;;;;;19.05;7.07;;;6.50;97.50;;;;;;5116068;27;20050;-72
2022/03/08 10:10:55;;;;;;;17.52;6.45;;;6.60;97.80;;;;;;5099627;28;20051;-74
2022/03/08 10:13:23;;;;;;;;;;;6.70;95.60;;;;;;5078289;28;20044;-73
2022/03/08 10:16:23;;;;;;;25.98;8.90;;;6.80;95.10;;;;;;5112277;28;19923;-73
2022/03/08 10:18:54;;;;;;;21.08;7.93;;;6.80;94.10;;;;;;5112817;28;20407;-73
2022/03/08 10:21:33;;;;;;;22.65;7.70;;;6.80;95.70;;;;;;5094912;28;20063;-72
2022/03/08 10:24:16;;;;;;;19.13;7.95;;;6.80;96.10;;;;;;5112704;28;20051;-74
2022/03/08 10:26:53;;;;;;;20.25;7.13;;;6.90;96.00;;;;;;5111107;28;20065;-75
2022/03/08 10:29:23;;;;;;;15.90;6.63;;;7.10;92.10;;;;;;5095302;28;20055;-74
2022/03/08 10:31:49;;;;;;;19.30;7.38;;;7.10;91.40;;;;;;5093937;28;20093;-73
2022/03/08 10:34:17;;;;;;;25.17;9.35;;;7.20;91.30;;;;;;5094825;28;20036;-74
2022/03/08 10:37:06;;;;;;;19.13;7.07;;;7.20;91.90;;;;;;5112008;28;20043;-73
2022/03/08 10:39:32;;;;;;;14.00;6.28;;;7.20;91.60;;;;;;5113126;28;20051;-74
2022/03/08 10:41:58;;;;;;;21.50;7.93;;;7.30;91.40;;;;;;5110822;28;20051;-74
2022/03/08 10:44:33;;;;;;;16.55;5.30;;;7.50;92.70;;;;;;5112779;28;20047;-73
2022/03/08 10:47:05;;;;;;;19.92;7.47;;;7.60;90.50;;;;;;5111535;28;20081;-74
2022/03/08 10:49:32;;;;;;;16.10;6.47;;;7.60;91.40;;;;;;5112288;28;20486;-73
2022/03/08 10:52:04;;;;;;;22.17;7.22;;;7.70;88.30;;;;;;5111349;28;20483;-73
2022/03/08 10:54:31;;;;;;;27.08;8.85;;;7.70;90.90;;;;;;5093922;28;20460;-73
2022/03/08 10:56:57;;;;;;;23.23;9.85;;;7.70;91.60;;;;;;5092094;28;20044;-74
2022/03/08 10:59:24;;;;;;;20.80;10.80;;;7.70;90.70;;;;;;5105171;27;20424;-74
2022/03/08 11:01:49;;;;;;;22.63;9.48;;;7.70;81.60;;;;;;5132126;27;20043;-73
2022/03/08 11:04:21;;;;;;;16.77;6.68;;;7.80;88.90;;;;;;5097962;27;20096;-74
2022/03/08 11:06:50;;;;;;;19.98;7.45;;;7.90;87.00;;;;;;5113728;27;20090;-75
2022/03/08 11:09:17;;;;;;;20.20;7.90;;;7.90;90.00;;;;;;5098188;27;20043;-73
2022/03/08 11:11:43;;;;;;;20.48;8.65;;;7.90;89.30;;;;;;5112801;27;20099;-74
2022/03/08 11:14:10;;;;;;;13.02;5.47;;;8.00;90.20;;;;;;5114026;27;20039;-73
2022/03/08 11:16:36;;;;;;;20.77;7.65;;;8.10;85.60;;;;;;5132194;27;20129;-73
2022/03/08 11:19:02;;;;;;;19.08;6.43;;;8.10;88.70;;;;;;5132136;27;20058;-75
2022/03/08 11:21:30;;;;;;;16.35;7.03;;;8.10;87.90;;;;;;5132209;27;20061;-73
2022/03/08 11:23:56;;;;;;;17.35;6.97;;;8.30;86.00;;;;;;5113821;27;20374;-73
2022/03/08 11:26:23;;;;;;;17.70;6.72;;;8.30;86.90;;;;;;5112532;27;20047;-74
2022/03/08 11:28:50;;;;;;;14.00;4.90;;;8.40;84.50;;;;;;5113769;27;20333;-74
2022/03/08 11:31:19;;;;;;;16.65;6.28;;;8.40;81.00;;;;;;5113523;27;20042;-73
2022/03/08 11:33:58;;;;;;;15.50;6.28;;;8.50;78.80;;;;;;5132546;27;20135;-73
2022/03/08 11:36:31;;;;;;;19.23;7.15;;;8.50;78.60;;;;;;5132031;27;20058;-73
2022/03/08 11:39:15;;;;;;;17.92;7.53;;;8.60;76.00;;;;;;5113570;27;20058;-73
2022/03/08 11:41:47;;;;;;;14.50;5.82;;;8.60;77.70;;;;;;5112296;28;20039;-72
2022/03/08 11:44:53;;;;;;;18.60;6.30;;;8.60;77.40;;;;;;5132455;27;20039;-75
2022/03/08 11:47:19;;;;;;;17.92;6.60;;;8.70;75.20;;;;;;5120538;27;20166;-74
2022/03/08 11:49:54;;;;;;;12.10;5.78;;;8.70;74.10;;;;;;5097037;28;20142;-74
2022/03/08 11:52:33;;;;;;;13.68;5.72;;;8.70;76.30;;;;;;5096630;28;20062;-73
2022/03/08 11:55:03;;;;;;;17.55;6.75;;;8.90;71.80;;;;;;5113421;28;20051;-74
2022/03/08 11:57:47;;;;;;;13.90;4.90;;;8.90;74.50;;;;;;5130864;28;20147;-76
2022/03/08 12:00:20;;;;;;;12.85;4.88;;;8.90;70.30;;;;;;5113282;28;20104;-74
2022/03/08 12:02:51;;;;;;;14.80;6.05;;;8.90;70.00;;;;;;5132316;28;20059;-74
2022/03/08 12:05:42;;;;;;;9.70;3.38;;;8.90;72.90;;;;;;5131871;28;20046;-74
2022/03/08 12:08:29;;;;;;;16.73;5.28;;;9.00;70.50;;;;;;5131792;28;20043;-73
2022/03/08 12:11:07;;;;;;;10.57;4.25;;;9.00;74.20;;;;;;5111312;28;20043;-73
2022/03/08 12:13:35;;;;;;;8.93;4.03;;;9.10;69.40;;;;;;5113568;28;20130;-74
2022/03/08 12:16:10;;;;;;;13.68;4.60;;;9.10;70.20;;;;;;5112884;28;20100;-73
2022/03/08 12:18:47;;;;;;;20.08;8.57;;;9.10;67.50;;;;;;5113532;28;20491;-75
2022/03/08 12:21:22;;;;;;;15.70;6.40;;;9.10;70.90;;;;;;5131057;28;20062;-74
2022/03/08 12:23:52;;;;;;;12.80;4.95;;;9.10;73.20;;;;;;5114113;28;20082;-74
2022/03/08 12:26:28;;;;;;;11.23;3.90;;;9.20;70.70;;;;;;5112081;28;20103;-74
2022/03/08 12:29:07;;;;;;;11.87;4.73;;;9.20;69.80;;;;;;5131684;28;20050;-74
2022/03/08 12:31:58;;;;;;;10.93;4.43;;;9.30;69.30;;;;;;5113433;28;20285;-74
2022/03/08 12:34:36;;;;;;;13.70;4.88;;;9.30;70.20;;;;;;5113463;27;20043;-75
2022/03/08 12:37:08;;;;;;;9.93;3.40;;;9.30;71.50;;;;;;5134958;27;20047;-75